Time;durP1;ratioP1;P1;durP2;ratioP2;P2;SDS_P1;SDS_P2;PMS_P1;PMS_P2;Temp;Humidity;BMP_temperature;BMP_pressure;BME280_temperature;BME280_humidity;BME280_pressure;Samples;Min_cycle;Max_cycle;Signal;HPM_P1;HPM_P2
2023/07/25 00:00:42;;;;;;;7.65;2.08;;;;;;;13.72;100.00;99999.47;5003069;28;20180;-45
2023/07/25 00:03:08;;;;;;;10.18;2.10;;;;;;;13.72;100.00;99999.47;5003578;28;20195;-48
2023/07/25 00:05:34;;;;;;;6.03;2.20;;;;;;;13.75;100.00;99998.41;5008099;28;20218;-45
2023/07/25 00:08:00;;;;;;;6.95;2.30;;;;;;;13.79;100.00;100006.19;5001458;28;20375;-45
2023/07/25 00:10:25;;;;;;;5.50;1.90;;;;;;;13.79;100.00;100016.09;4997422;28;20262;-43
2023/07/25 00:12:53;;;;;;;6.43;2.00;;;;;;;13.83;100.00;100020.31;4999374;28;20185;-45
2023/07/25 00:15:19;;;;;;;7.53;2.40;;;;;;;13.82;100.00;100015.91;5000955;28;20239;-44
2023/07/25 00:17:44;;;;;;;8.00;2.30;;;;;;;13.91;100.00;100020.69;5002788;28;20287;-44
2023/07/25 00:20:11;;;;;;;4.45;1.85;;;;;;;13.89;100.00;100019.06;5000445;28;20652;-43
2023/07/25 00:22:36;;;;;;;8.05;2.10;;;;;;;13.82;100.00;100010.53;4994329;28;20214;-44
2023/07/25 00:25:02;;;;;;;7.00;2.03;;;;;;;13.85;100.00;100015.72;4997881;28;20196;-45
2023/07/25 00:27:27;;;;;;;4.47;1.80;;;;;;;13.91;100.00;100017.16;4999994;28;20639;-44
2023/07/25 00:29:53;;;;;;;4.00;1.50;;;;;;;13.87;100.00;100029.06;5000778;28;20195;-46
2023/07/25 00:32:19;;;;;;;2.28;1.70;;;;;;;13.88;100.00;100014.63;5006662;28;20247;-44
2023/07/25 00:34:44;;;;;;;4.40;1.80;;;;;;;13.89;100.00;100029.84;4999149;28;20569;-44
2023/07/25 00:37:10;;;;;;;2.30;1.30;;;;;;;13.80;100.00;100034.84;5001902;28;20687;-45
2023/07/25 00:39:35;;;;;;;3.55;1.67;;;;;;;13.77;100.00;100040.44;5006172;28;20192;-44
2023/07/25 00:42:01;;;;;;;4.00;1.70;;;;;;;13.84;100.00;100035.53;5000901;28;20209;-45
2023/07/25 00:44:26;;;;;;;1.77;1.33;;;;;;;13.93;100.00;100029.53;4998263;28;20181;-45
2023/07/25 00:46:52;;;;;;;4.45;1.50;;;;;;;13.85;100.00;100036.38;4998431;28;20246;-45
2023/07/25 00:49:17;;;;;;;3.17;1.90;;;;;;;13.83;100.00;100027.53;5004491;28;20180;-45
2023/07/25 00:51:43;;;;;;;4.25;1.60;;;;;;;13.76;100.00;100030.63;4997538;28;20232;-45
2023/07/25 00:54:08;;;;;;;2.50;1.70;;;;;;;13.76;100.00;100029.78;4999840;28;20675;-45
2023/07/25 00:56:34;;;;;;;6.75;1.98;;;;;;;13.79;100.00;100027.72;5003586;28;20829;-44
2023/07/25 00:59:00;;;;;;;4.15;1.70;;;;;;;13.85;100.00;100029.16;4998375;28;20642;-47
2023/07/25 01:01:27;;;;;;;4.50;1.80;;;;;;;13.81;100.00;100036.56;5001422;28;20607;-43
2023/07/25 01:03:55;;;;;;;5.90;1.80;;;;;;;13.90;100.00;100032.41;5007582;28;20291;-44
2023/07/25 01:06:20;;;;;;;3.78;1.73;;;;;;;13.84;100.00;100040.03;5015404;28;20211;-45
2023/07/25 01:08:53;;;;;;;4.85;1.98;;;;;;;13.86;100.00;100036.25;4999922;28;20189;-45
2023/07/25 01:11:20;;;;;;;6.03;1.73;;;;;;;13.93;100.00;100045.69;4997912;28;20177;-44
2023/07/25 01:13:46;;;;;;;4.75;1.95;;;;;;;13.94;100.00;100041.16;5004335;28;20190;-43
2023/07/25 01:16:16;;;;;;;4.18;2.08;;;;;;;13.88;100.00;100058.56;5003305;28;20264;-45
2023/07/25 01:18:43;;;;;;;6.93;2.25;;;;;;;13.90;100.00;100056.66;5016809;28;20266;-46
2023/07/25 01:21:10;;;;;;;5.07;1.85;;;;;;;13.97;100.00;100058.00;4998564;28;20224;-45
2023/07/25 01:23:36;;;;;;;6.85;2.47;;;;;;;14.04;100.00;100052.19;4992756;28;20327;-45
2023/07/25 01:26:02;;;;;;;8.43;2.30;;;;;;;13.99;100.00;100049.81;5001092;28;20263;-46
2023/07/25 01:28:28;;;;;;;4.78;2.08;;;;;;;14.01;100.00;100047.88;4998952;28;20185;-44
2023/07/25 01:30:53;;;;;;;8.15;2.45;;;;;;;13.94;100.00;100050.09;4999349;28;20184;-44
2023/07/25 01:33:19;;;;;;;6.60;2.33;;;;;;;13.90;100.00;100058.50;4996763;28;20675;-45
2023/07/25 01:35:44;;;;;;;7.18;2.30;;;;;;;13.96;100.00;100050.88;5009844;28;20212;-44
2023/07/25 01:38:10;;;;;;;7.47;2.17;;;;;;;13.93;100.00;100052.94;5001537;28;20181;-45
2023/07/25 01:40:39;;;;;;;12.32;2.33;;;;;;;13.93;100.00;100055.63;4998309;28;20656;-43
2023/07/25 01:43:05;;;;;;;4.95;2.30;;;;;;;13.85;100.00;100061.47;4996268;28;20271;-44
2023/07/25 01:45:30;;;;;;;6.22;2.13;;;;;;;13.92;100.00;100065.50;5000538;28;20275;-45
2023/07/25 01:47:57;;;;;;;6.38;2.28;;;;;;;13.92;100.00;100067.34;4993289;28;20181;-46
2023/07/25 01:50:22;;;;;;;5.40;2.17;;;;;;;13.94;100.00;100077.03;4996163;28;20670;-46
2023/07/25 01:52:48;;;;;;;7.20;2.33;;;;;;;13.97;100.00;100068.78;4999090;28;20332;-45
2023/07/25 01:55:13;;;;;;;7.65;2.15;;;;;;;13.92;100.00;100060.13;5001960;28;20184;-45
2023/07/25 01:57:40;;;;;;;7.40;2.70;;;;;;;13.91;100.00;100069.16;4994631;28;20277;-45
2023/07/25 02:00:07;;;;;;;8.75;2.53;;;;;;;13.94;100.00;100063.56;5002681;28;20189;-45
2023/07/25 02:02:38;;;;;;;5.88;2.22;;;;;;;13.94;100.00;100074.34;4998442;28;20266;-45
2023/07/25 02:05:04;;;;;;;6.43;2.88;;;;;;;13.99;100.00;100071.34;5003819;28;20173;-44
2023/07/25 02:07:29;;;;;;;9.23;2.42;;;;;;;13.88;100.00;100077.44;5005532;28;20609;-43
2023/07/25 02:09:55;;;;;;;13.00;2.42;;;;;;;13.84;100.00;100070.53;5002904;28;20566;-46
2023/07/25 02:12:20;;;;;;;7.72;2.53;;;;;;;13.83;100.00;100078.69;5008194;28;20192;-45
2023/07/25 02:14:46;;;;;;;11.10;2.50;;;;;;;13.75;100.00;100080.06;4999712;28;20271;-46
2023/07/25 02:17:12;;;;;;;9.70;2.85;;;;;;;13.78;100.00;100070.91;5004275;28;20207;-46
2023/07/25 02:19:38;;;;;;;6.32;2.45;;;;;;;13.81;100.00;100076.94;4993525;28;20627;-45
2023/07/25 02:22:07;;;;;;;8.02;2.60;;;;;;;13.77;100.00;100077.25;4999594;28;20176;-47
2023/07/25 02:24:34;;;;;;;7.50;2.63;;;;;;;13.68;100.00;100083.22;4997380;28;20192;-46
2023/07/25 02:26:59;;;;;;;5.07;2.47;;;;;;;13.79;100.00;100096.88;5004089;28;20577;-44
2023/07/25 02:29:25;;;;;;;6.22;2.53;;;;;;;13.79;100.00;100107.63;4987248;28;20193;-46
2023/07/25 02:31:50;;;;;;;6.15;2.45;;;;;;;13.79;100.00;100094.19;5000306;28;20192;-46
2023/07/25 02:34:16;;;;;;;6.07;2.42;;;;;;;13.70;100.00;100103.69;5002049;28;20176;-45
2023/07/25 02:36:42;;;;;;;6.82;2.13;;;;;;;13.67;100.00;100103.03;5000741;28;20243;-45
2023/07/25 02:39:08;;;;;;;7.72;2.72;;;;;;;13.70;100.00;100097.47;4997809;28;20197;-46
2023/07/25 02:41:34;;;;;;;9.70;2.53;;;;;;;13.65;100.00;100102.28;4996973;28;20235;-44
2023/07/25 02:44:00;;;;;;;10.52;2.65;;;;;;;13.68;100.00;100096.69;5002995;28;20184;-44
2023/07/25 02:46:25;;;;;;;8.52;3.05;;;;;;;13.72;100.00;100095.53;4996730;28;20215;-45
2023/07/25 02:48:51;;;;;;;8.02;2.42;;;;;;;13.71;100.00;100097.38;4998777;28;20646;-45
2023/07/25 02:51:16;;;;;;;10.35;2.72;;;;;;;13.59;100.00;100100.81;4996770;28;20181;-45
2023/07/25 02:53:42;;;;;;;9.70;3.00;;;;;;;13.59;100.00;100096.28;5009305;28;20531;-45
2023/07/25 02:56:07;;;;;;;7.45;2.50;;;;;;;13.50;100.00;100099.56;5003724;28;20232;-45
2023/07/25 02:58:33;;;;;;;7.68;2.40;;;;;;;13.40;100.00;100095.69;5005464;28;20176;-43
2023/07/25 03:00:59;;;;;;;8.93;2.55;;;;;;;13.35;100.00;100095.13;5002559;28;20491;-45
2023/07/25 03:03:25;;;;;;;7.25;2.58;;;;;;;13.32;100.00;100098.88;4994259;28;20185;-44
2023/07/25 03:05:50;;;;;;;8.40;2.72;;;;;;;13.32;100.00;100108.78;5001058;28;20247;-44
2023/07/25 03:08:17;;;;;;;8.70;2.70;;;;;;;13.22;100.00;100110.25;4998674;28;20255;-46
2023/07/25 03:10:42;;;;;;;8.75;2.80;;;;;;;13.22;100.00;100107.56;5003295;28;20193;-46
2023/07/25 03:13:08;;;;;;;9.65;3.10;;;;;;;13.14;100.00;100103.53;4995369;28;20253;-44
2023/07/25 03:15:33;;;;;;;11.05;2.50;;;;;;;13.20;100.00;100099.59;4995781;28;20221;-45
2023/07/25 03:17:59;;;;;;;6.18;2.40;;;;;;;13.14;100.00;100103.53;5003249;28;20719;-46
2023/07/25 03:20:24;;;;;;;13.82;2.85;;;;;;;13.02;100.00;100103.41;4996095;28;20176;-46
2023/07/25 03:22:50;;;;;;;10.20;2.90;;;;;;;12.99;100.00;100099.09;5003255;28;20193;-44
2023/07/25 03:25:15;;;;;;;9.35;2.25;;;;;;;12.92;100.00;100105.75;5006943;28;20173;-46
2023/07/25 03:27:41;;;;;;;7.00;2.70;;;;;;;12.85;100.00;100107.94;5002258;28;20528;-45
2023/07/25 03:30:07;;;;;;;5.90;2.53;;;;;;;12.81;100.00;100102.84;5007863;28;20601;-46
2023/07/25 03:32:32;;;;;;;11.00;2.90;;;;;;;12.82;100.00;100109.97;5006026;28;20199;-46
2023/07/25 03:34:58;;;;;;;6.03;2.55;;;;;;;12.78;100.00;100104.75;4999043;28;20180;-47
2023/07/25 03:37:23;;;;;;;8.73;2.55;;;;;;;12.75;100.00;100118.38;4998991;28;20246;-46
2023/07/25 03:39:49;;;;;;;6.97;2.90;;;;;;;12.73;100.00;100108.69;5003412;28;20663;-45
2023/07/25 03:42:14;;;;;;;4.88;2.50;;;;;;;12.78;100.00;100093.16;5002142;28;20180;-45
2023/07/25 03:44:40;;;;;;;9.75;2.40;;;;;;;12.75;100.00;100096.88;5004734;28;20574;-45
2023/07/25 03:47:05;;;;;;;8.73;2.95;;;;;;;12.77;100.00;100115.63;5001808;28;20205;-44
2023/07/25 03:49:31;;;;;;;9.52;2.60;;;;;;;12.66;100.00;100109.97;5002856;28;20217;-45
2023/07/25 03:51:56;;;;;;;8.02;2.72;;;;;;;12.83;100.00;100104.47;4997422;28;20685;-45
2023/07/25 03:54:23;;;;;;;10.98;3.17;;;;;;;12.77;100.00;100096.81;4994953;28;20188;-45
2023/07/25 03:56:50;;;;;;;9.35;2.60;;;;;;;12.78;100.00;100103.91;5002777;28;20282;-45
2023/07/25 03:59:19;;;;;;;8.98;2.40;;;;;;;12.69;100.00;100110.69;5000003;28;20224;-43
2023/07/25 04:01:45;;;;;;;10.43;2.67;;;;;;;12.76;100.00;100103.13;5000463;28;20618;-47
2023/07/25 04:04:10;;;;;;;11.10;3.00;;;;;;;12.76;100.00;100103.97;4994892;28;20256;-43
2023/07/25 04:06:39;;;;;;;11.65;2.47;;;;;;;12.75;100.00;100106.78;5003904;28;20824;-45
2023/07/25 04:09:04;;;;;;;10.02;2.85;;;;;;;12.72;100.00;100109.63;5002442;28;20244;-45
2023/07/25 04:11:30;;;;;;;7.40;2.90;;;;;;;12.80;100.00;100119.94;4998362;28;20197;-45
2023/07/25 04:13:56;;;;;;;6.25;2.58;;;;;;;12.76;100.00;100119.25;4999752;28;20691;-45
2023/07/25 04:16:22;;;;;;;12.60;2.50;;;;;;;12.69;100.00;100112.50;5006198;28;20747;-45
2023/07/25 04:18:48;;;;;;;10.13;2.85;;;;;;;12.66;100.00;100116.25;4999349;28;20185;-46
2023/07/25 04:21:13;;;;;;;9.43;2.72;;;;;;;12.69;100.00;100110.69;5000045;28;20228;-45
2023/07/25 04:23:39;;;;;;;7.93;2.55;;;;;;;12.75;100.00;100113.00;4997195;28;20189;-45
2023/07/25 04:26:04;;;;;;;9.57;3.22;;;;;;;12.86;100.00;100111.53;5001452;28;20199;-45
2023/07/25 04:28:30;;;;;;;6.90;2.50;;;;;;;12.91;100.00;100106.72;4999422;28;20421;-45
2023/07/25 04:30:55;;;;;;;6.65;2.42;;;;;;;12.88;100.00;100110.47;4997518;28;20664;-45
2023/07/25 04:33:21;;;;;;;7.65;2.58;;;;;;;12.84;100.00;100108.91;4999421;28;20530;-46
2023/07/25 04:35:46;;;;;;;11.48;3.03;;;;;;;12.90;100.00;100107.66;4999398;28;20321;-45
2023/07/25 04:38:15;;;;;;;8.85;2.63;;;;;;;12.94;100.00;100119.97;5003883;28;20250;-46
2023/07/25 04:40:42;;;;;;;7.38;3.05;;;;;;;13.10;100.00;100117.25;5004704;28;20181;-46
2023/07/25 04:43:08;;;;;;;7.85;2.67;;;;;;;13.08;100.00;100130.78;5003606;28;20176;-46
2023/07/25 04:45:33;;;;;;;8.30;2.53;;;;;;;13.09;100.00;100120.91;5004876;28;20192;-45
2023/07/25 04:47:59;;;;;;;8.82;2.63;;;;;;;13.10;100.00;100131.56;5001909;28;20289;-45
2023/07/25 04:50:25;;;;;;;8.40;2.67;;;;;;;13.19;100.00;100131.00;4998616;28;20173;-45
2023/07/25 04:52:51;;;;;;;8.52;2.60;;;;;;;13.25;100.00;100123.50;5000270;28;20615;-45
2023/07/25 04:55:16;;;;;;;10.00;2.67;;;;;;;13.30;100.00;100132.22;5001939;28;20219;-46
2023/07/25 04:57:42;;;;;;;4.78;2.10;;;;;;;13.38;100.00;100130.81;5004636;28;20212;-45
2023/07/25 05:00:08;;;;;;;10.07;2.55;;;;;;;13.45;100.00;100125.91;5004403;28;20225;-46
2023/07/25 05:02:34;;;;;;;6.80;2.28;;;;;;;13.57;100.00;100125.13;5005583;28;20176;-45
2023/07/25 05:05:00;;;;;;;10.85;3.03;;;;;;;13.67;100.00;100129.97;4998169;28;20219;-44
2023/07/25 05:07:25;;;;;;;5.47;2.22;;;;;;;13.80;100.00;100131.78;4997841;28;20240;-44
2023/07/25 05:09:51;;;;;;;10.20;2.83;;;;;;;13.90;100.00;100123.97;5036926;23;20231;-43
2023/07/25 05:12:17;;;;;;;7.53;2.70;;;;;;;13.99;100.00;100131.50;5026033;28;20169;-46
2023/07/25 05:14:43;;;;;;;8.32;2.47;;;;;;;14.17;100.00;100137.53;5024362;28;20292;-44
2023/07/25 05:17:08;;;;;;;8.65;2.42;;;;;;;14.20;100.00;100137.31;5027777;28;20677;-44
2023/07/25 05:19:34;;;;;;;7.72;2.20;;;;;;;14.36;100.00;100131.78;5028419;28;20184;-44
2023/07/25 05:21:59;;;;;;;13.07;2.70;;;;;;;14.24;100.00;100129.91;5026099;28;20175;-43
2023/07/25 05:24:25;;;;;;;8.07;1.90;;;;;;;14.46;100.00;100129.38;5025905;28;20192;-44
2023/07/25 05:26:51;;;;;;;12.20;2.38;;;;;;;14.53;100.00;100125.31;5027639;28;20602;-44
2023/07/25 05:29:16;;;;;;;10.25;2.75;;;;;;;14.61;100.00;100120.31;5027752;28;20176;-45
2023/07/25 05:31:41;;;;;;;7.18;2.13;;;;;;;14.72;100.00;100119.59;5027659;28;20182;-43
2023/07/25 05:34:07;;;;;;;10.43;3.13;;;;;;;14.56;100.00;100121.56;5026855;28;20168;-44
2023/07/25 05:36:33;;;;;;;5.63;2.08;;;;;;;14.75;100.00;100127.47;5028151;28;20591;-44
2023/07/25 05:38:58;;;;;;;9.50;2.70;;;;;;;14.93;100.00;100113.72;5027483;28;20259;-43
2023/07/25 05:41:24;;;;;;;6.90;2.58;;;;;;;14.97;100.00;100121.47;5025517;28;20180;-42
2023/07/25 05:43:49;;;;;;;5.30;2.10;;;;;;;14.88;100.00;100126.66;5025506;28;20601;-45
2023/07/25 05:46:15;;;;;;;10.75;2.40;;;;;;;14.91;100.00;100119.22;5022814;28;20196;-44
2023/07/25 05:48:40;;;;;;;7.90;2.40;;;;;;;14.96;100.00;100111.69;5027863;28;20183;-45
2023/07/25 05:51:06;;;;;;;9.65;2.40;;;;;;;14.82;100.00;100128.81;5028512;28;20184;-44
2023/07/25 05:53:32;;;;;;;7.43;2.33;;;;;;;15.02;100.00;100124.75;5026237;28;20207;-45
2023/07/25 05:55:57;;;;;;;8.43;2.28;;;;;;;15.01;100.00;100116.75;5025235;28;20211;-44
2023/07/25 05:58:23;;;;;;;10.27;2.22;;;;;;;14.83;100.00;100114.34;5026803;28;20522;-45
2023/07/25 06:00:49;;;;;;;11.15;2.40;;;;;;;14.90;100.00;100127.41;5028661;28;20183;-44
2023/07/25 06:03:15;;;;;;;8.30;2.22;;;;;;;14.93;100.00;100113.72;5024711;28;21296;-48
2023/07/25 06:05:41;;;;;;;12.85;2.58;;;;;;;14.79;100.00;100110.13;5027446;28;20196;-46
2023/07/25 06:08:07;;;;;;;11.75;2.78;;;;;;;15.09;100.00;100114.41;5026285;28;20184;-46
2023/07/25 06:10:34;;;;;;;12.50;2.50;;;;;;;15.28;100.00;100115.81;5027125;28;20180;-47
2023/07/25 06:12:59;;;;;;;5.57;2.60;;;;;;;15.66;100.00;100115.84;5024413;28;20193;-45
2023/07/25 06:15:28;;;;;;;6.80;2.13;;;;;;;15.51;100.00;100116.94;5026722;28;20582;-47
2023/07/25 06:17:53;;;;;;;9.27;2.42;;;;;;;15.96;100.00;100112.84;5028020;28;20184;-48
2023/07/25 06:20:19;;;;;;;9.85;2.35;;;;;;;16.19;100.00;100110.28;5027156;28;20663;-45
2023/07/25 06:22:45;;;;;;;6.30;2.60;;;;;;;16.61;100.00;100091.84;5026444;28;20172;-47
2023/07/25 06:25:12;;;;;;;9.18;2.33;;;;;;;16.66;100.00;100081.53;5025545;28;20626;-47
2023/07/25 06:27:38;;;;;;;7.20;2.20;;;;;;;16.86;98.58;100080.94;5024926;28;20184;-45
2023/07/25 06:30:04;;;;;;;6.63;2.03;;;;;;;17.18;96.66;100074.00;5024463;28;20186;-47
2023/07/25 06:32:30;;;;;;;11.77;2.55;;;;;;;17.18;95.00;100069.44;5025882;28;20212;-46
2023/07/25 06:34:56;;;;;;;7.25;2.80;;;;;;;17.23;93.18;100066.38;5024735;28;20184;-45
2023/07/25 06:37:21;;;;;;;7.50;2.63;;;;;;;17.35;91.72;100073.53;5025056;28;20275;-45
2023/07/25 06:39:47;;;;;;;7.55;2.50;;;;;;;17.30;90.61;100067.63;5026401;28;20191;-45
2023/07/25 06:42:12;;;;;;;11.68;2.38;;;;;;;17.23;89.53;100061.84;5026398;28;20251;-47
2023/07/25 06:44:38;;;;;;;9.68;2.22;;;;;;;17.62;88.50;100066.91;5025615;28;20180;-46
2023/07/25 06:47:03;;;;;;;5.88;2.40;;;;;;;16.93;88.45;100058.81;5025126;28;20199;-45
2023/07/25 06:49:29;;;;;;;10.55;2.80;;;;;;;17.09;88.11;100060.19;5026602;28;20673;-46
2023/07/25 06:51:57;;;;;;;5.85;2.10;;;;;;;17.28;86.85;100056.06;5025310;28;20180;-47
2023/07/25 06:54:23;;;;;;;5.97;2.15;;;;;;;17.52;85.49;100053.25;5021611;28;20555;-47
2023/07/25 06:56:48;;;;;;;7.53;1.92;;;;;;;17.13;85.14;100047.28;5025048;28;20238;-46
2023/07/25 06:59:14;;;;;;;7.00;2.20;;;;;;;17.10;85.54;100063.78;5031403;28;20585;-46
2023/07/25 07:01:40;;;;;;;9.93;2.08;;;;;;;17.44;85.66;100063.84;5032327;28;20600;-48
2023/07/25 07:04:05;;;;;;;6.22;2.30;;;;;;;17.15;85.70;100069.69;5031831;28;20259;-46
2023/07/25 07:06:31;;;;;;;6.97;1.92;;;;;;;17.16;85.04;100068.69;5033150;28;20211;-46
2023/07/25 07:08:56;;;;;;;8.35;2.28;;;;;;;17.60;84.86;100058.06;5032204;28;20195;-47
2023/07/25 07:11:22;;;;;;;9.43;2.17;;;;;;;17.82;84.29;100057.22;5030879;28;20179;-47
2023/07/25 07:13:47;;;;;;;6.03;1.75;;;;;;;17.06;83.42;100049.63;5031791;28;20602;-46
2023/07/25 07:16:13;;;;;;;7.10;2.53;;;;;;;17.22;84.61;100061.97;5030344;28;20290;-47
2023/07/25 07:18:39;;;;;;;8.02;2.45;;;;;;;17.80;83.96;100048.31;5033098;28;20571;-48
2023/07/25 07:21:05;;;;;;;5.03;2.22;;;;;;;18.29;83.37;100060.59;5032279;28;20172;-47
2023/07/25 07:23:30;;;;;;;7.07;2.20;;;;;;;18.56;82.14;100056.56;5031315;28;20245;-48
2023/07/25 07:25:56;;;;;;;7.18;2.30;;;;;;;17.27;83.05;100068.75;5031235;28;20271;-47
2023/07/25 07:28:21;;;;;;;9.23;2.20;;;;;;;16.68;83.42;100071.47;5030254;28;20184;-47
2023/07/25 07:30:51;;;;;;;8.00;2.10;;;;;;;16.41;84.07;100085.22;5032793;28;20172;-48
2023/07/25 07:33:17;;;;;;;5.35;1.65;;;;;;;16.58;84.44;100087.53;5031936;28;20176;-46
2023/07/25 07:35:43;;;;;;;8.70;1.58;;;;;;;16.47;84.42;100079.38;5032801;28;20211;-47
2023/07/25 07:38:08;;;;;;;6.10;1.98;;;;;;;16.25;85.54;100088.22;5032031;28;20188;-47
2023/07/25 07:40:35;;;;;;;5.00;1.30;;;;;;;16.40;85.13;100088.94;5031588;28;20309;-47
2023/07/25 07:43:01;;;;;;;5.90;1.80;;;;;;;16.79;83.82;100078.75;5032497;28;20184;-46
2023/07/25 07:45:27;;;;;;;8.00;1.63;;;;;;;17.34;82.17;100077.25;5033086;28;20175;-48
2023/07/25 07:47:53;;;;;;;11.30;1.48;;;;;;;17.67;80.71;100079.13;5033058;28;20171;-47
2023/07/25 07:50:19;;;;;;;5.97;1.60;;;;;;;17.99;78.86;100074.81;5032735;28;20188;-47
2023/07/25 07:52:44;;;;;;;3.53;1.42;;;;;;;17.78;77.52;100082.84;5031464;28;20267;-47
2023/07/25 07:55:11;;;;;;;3.47;1.20;;;;;;;18.04;76.06;100084.31;5029954;28;20167;-46
2023/07/25 07:57:44;;;;;;;3.97;1.30;;;;;;;18.03;74.64;100077.16;5031384;28;20199;-46
2023/07/25 08:00:13;;;;;;;5.65;1.48;;;;;;;18.75;74.13;100078.47;5032705;28;20232;-47
2023/07/25 08:02:39;;;;;;;2.83;1.20;;;;;;;18.80;73.82;100078.09;5032102;28;20617;-46
2023/07/25 08:05:05;;;;;;;4.57;1.40;;;;;;;19.19;72.86;100081.97;5032403;28;20242;-46
2023/07/25 08:07:31;;;;;;;3.88;1.30;;;;;;;18.96;72.59;100083.06;5032020;28;20188;-48
2023/07/25 08:09:57;;;;;;;3.03;1.20;;;;;;;18.48;72.04;100085.22;5031123;28;20600;-46
2023/07/25 08:12:23;;;;;;;5.05;1.50;;;;;;;18.49;73.08;100099.63;5028822;28;20179;-47
2023/07/25 08:14:48;;;;;;;4.13;1.50;;;;;;;18.52;72.57;100094.81;5029282;28;20206;-48
2023/07/25 08:17:15;;;;;;;5.38;1.35;;;;;;;18.21;73.83;100101.91;5029095;28;20666;-45
2023/07/25 08:19:41;;;;;;;3.03;1.23;;;;;;;18.04;73.33;100105.16;5026819;28;20190;-46
2023/07/25 08:22:07;;;;;;;6.28;1.55;;;;;;;17.52;73.23;100103.88;5027612;28;20172;-47
2023/07/25 08:24:32;;;;;;;6.43;1.73;;;;;;;17.56;73.38;100114.34;5026693;28;20670;-47
2023/07/25 08:27:01;;;;;;;6.50;1.42;;;;;;;17.53;75.64;100133.53;5028558;28;20222;-45
2023/07/25 08:29:27;;;;;;;4.13;1.92;;;;;;;17.07;76.03;100135.22;5028900;28;20195;-47
2023/07/25 08:31:53;;;;;;;5.13;1.52;;;;;;;16.86;77.31;100148.56;5027580;28;20564;-46
2023/07/25 08:34:19;;;;;;;3.78;1.33;;;;;;;16.89;78.30;100155.59;5027980;28;20174;-46
2023/07/25 08:36:44;;;;;;;7.30;1.95;;;;;;;16.85;78.53;100149.53;5027534;28;20685;-46
2023/07/25 08:39:10;;;;;;;4.60;1.38;;;;;;;17.25;79.27;100151.94;5026793;28;20184;-49
2023/07/25 08:41:43;;;;;;;6.30;1.50;;;;;;;17.14;80.19;100164.53;5026602;28;20196;-46
2023/07/25 08:44:12;;;;;;;5.60;1.60;;;;;;;17.06;80.81;100157.03;5027417;28;20176;-47
2023/07/25 08:46:44;;;;;;;4.10;1.30;;;;;;;17.12;80.73;100147.56;5028921;28;20294;-48
2023/07/25 08:49:14;;;;;;;4.28;1.58;;;;;;;17.33;80.51;100153.19;5026920;28;20191;-46
2023/07/25 08:51:42;;;;;;;3.20;1.05;;;;;;;18.39;78.93;100153.78;5027897;28;20168;-47
2023/07/25 08:54:29;;;;;;;4.95;1.38;;;;;;;18.52;75.86;100127.38;5028180;28;20274;-46
2023/07/25 08:56:55;;;;;;;6.03;1.20;;;;;;;18.13;75.25;100131.50;5028256;28;20429;-46
2023/07/25 08:59:21;;;;;;;2.88;1.02;;;;;;;18.00;74.84;100131.63;5027440;28;20776;-46
2023/07/25 09:01:47;;;;;;;6.65;1.65;;;;;;;18.46;71.92;100113.47;5029347;28;20226;-48
2023/07/25 09:04:14;;;;;;;3.25;1.30;;;;;;;18.75;69.24;100089.31;5027245;28;20604;-46
2023/07/25 09:06:40;;;;;;;2.65;1.17;;;;;;;18.20;68.49;100096.63;5028956;28;20303;-46
2023/07/25 09:09:06;;;;;;;9.70;2.10;;;;;;;18.17;68.84;100108.59;5010854;28;20279;-46
2023/07/25 09:11:33;;;;;;;4.22;1.27;;;;;;;18.86;69.45;100118.28;5024677;28;20601;-45
2023/07/25 09:14:00;;;;;;;6.05;1.52;;;;;;;19.25;69.21;100102.31;5026702;28;20203;-47
2023/07/25 09:16:26;;;;;;;4.82;1.48;;;;;;;19.37;68.33;100100.38;5027132;28;20197;-46
2023/07/25 09:18:52;;;;;;;3.17;1.13;;;;;;;19.16;67.41;100082.25;5028088;28;20172;-46
2023/07/25 09:21:18;;;;;;;3.42;1.15;;;;;;;18.98;67.96;100081.97;5027115;28;20198;-47
2023/07/25 09:23:54;;;;;;;3.83;1.00;;;;;;;18.37;67.97;100090.66;5028773;28;20634;-47
2023/07/25 09:26:29;;;;;;;11.27;1.90;;;;;;;18.86;67.50;100085.72;5027041;28;20183;-47
2023/07/25 09:28:59;;;;;;;12.43;1.88;;;;;;;19.27;67.31;100090.31;5027199;28;20211;-50
2023/07/25 09:31:26;;;;;;;4.82;1.50;;;;;;;19.13;66.17;100064.38;5028407;28;20242;-48
2023/07/25 09:33:54;;;;;;;5.18;1.40;;;;;;;19.63;65.97;100071.78;5028469;28;20172;-50
2023/07/25 09:36:20;;;;;;;2.33;1.20;;;;;;;20.66;64.14;100067.13;5027232;28;20188;-47
2023/07/25 09:38:50;;;;;;;4.13;1.50;;;;;;;20.03;62.96;100038.38;5027039;28;20450;-48
2023/07/25 09:41:17;;;;;;;5.18;1.35;;;;;;;18.79;64.23;100060.09;5025894;28;20552;-49
2023/07/25 09:43:43;;;;;;;6.70;1.20;;;;;;;19.58;65.06;100071.34;5027987;28;20202;-48
2023/07/25 09:46:08;;;;;;;6.25;1.50;;;;;;;19.03;66.07;100071.56;5027571;28;20195;-46
2023/07/25 09:48:34;;;;;;;3.47;1.40;;;;;;;18.62;66.10;100089.47;5027911;28;20250;-49
2023/07/25 09:51:02;;;;;;;6.15;1.67;;;;;;;17.88;67.67;100100.09;5026931;28;20551;-47
2023/07/25 09:53:29;;;;;;;6.15;1.45;;;;;;;17.61;68.58;100120.25;5027302;28;20238;-48
2023/07/25 09:55:55;;;;;;;4.82;1.33;;;;;;;17.69;67.68;100092.56;5026685;28;20242;-48
2023/07/25 09:58:21;;;;;;;4.95;1.13;;;;;;;17.81;66.85;100091.56;5027635;28;20208;-48
2023/07/25 10:00:48;;;;;;;3.08;1.20;;;;;;;18.37;66.41;100096.09;5026809;28;20230;-48
2023/07/25 10:03:13;;;;;;;5.57;1.10;;;;;;;18.43;64.34;100067.59;5025906;28;20252;-48
2023/07/25 10:05:43;;;;;;;3.67;1.30;;;;;;;18.43;64.57;100076.59;5025539;28;20203;-47
2023/07/25 10:08:14;;;;;;;3.95;1.27;;;;;;;18.21;64.50;100073.94;5026950;28;20195;-47
2023/07/25 10:10:41;;;;;;;5.95;1.77;;;;;;;17.61;65.41;100074.19;5027703;28;20191;-47
2023/07/25 10:13:08;;;;;;;4.57;1.48;;;;;;;17.65;65.80;100093.78;5027059;28;20171;-47
2023/07/25 10:15:34;;;;;;;3.25;1.20;;;;;;;17.64;66.29;100092.03;5027524;28;20207;-49
2023/07/25 10:18:04;;;;;;;5.45;1.60;;;;;;;17.67;67.46;100105.38;5026970;28;20191;-48
2023/07/25 10:20:31;;;;;;;4.65;1.40;;;;;;;17.81;67.46;100105.09;5025018;28;20196;-48
2023/07/25 10:23:08;;;;;;;6.95;1.45;;;;;;;17.80;67.19;100097.09;5027673;28;20554;-49
2023/07/25 10:25:37;;;;;;;5.32;1.27;;;;;;;18.26;66.58;100096.13;5027686;28;20235;-48
2023/07/25 10:28:04;;;;;;;5.00;1.55;;;;;;;18.43;66.41;100094.72;5027576;28;20249;-47
2023/07/25 10:30:32;;;;;;;3.75;1.33;;;;;;;18.75;65.68;100081.16;5026646;28;20183;-47
2023/07/25 10:33:03;;;;;;;7.10;1.60;;;;;;;18.99;64.99;100069.25;5025401;28;20172;-47
2023/07/25 10:35:44;;;;;;;7.28;1.58;;;;;;;19.10;64.34;100055.63;5024175;28;20192;-49
2023/07/25 10:38:12;;;;;;;9.13;1.75;;;;;;;19.45;64.46;100059.84;5023633;28;20179;-49
2023/07/25 10:40:58;;;;;;;5.13;1.52;;;;;;;19.54;64.25;100061.72;5026631;28;20202;-46
2023/07/25 10:43:28;;;;;;;4.47;1.48;;;;;;;19.73;63.45;100064.56;5025097;28;20196;-48
2023/07/25 10:45:58;;;;;;;3.67;1.48;;;;;;;19.90;62.88;100048.63;5023355;28;20212;-47
2023/07/25 10:48:28;;;;;;;3.20;1.27;;;;;;;20.24;61.13;100026.53;5026532;28;20590;-47
2023/07/25 10:50:54;;;;;;;4.10;1.20;;;;;;;20.47;60.28;100003.50;5023413;28;20648;-49
2023/07/25 10:53:21;;;;;;;5.05;1.20;;;;;;;20.51;58.86;99995.88;5025272;28;20557;-50
2023/07/25 10:56:05;;;;;;;7.65;1.35;;;;;;;20.66;56.88;99980.03;5026856;28;20696;-47
2023/07/25 10:58:33;;;;;;;8.00;1.48;;;;;;;20.40;57.84;99986.03;5025621;28;20184;-49
2023/07/25 11:01:00;;;;;;;3.72;1.08;;;;;;;20.05;57.56;99984.69;5026099;28;20760;-48
2023/07/25 11:03:27;;;;;;;5.60;1.55;;;;;;;20.16;56.88;99994.59;5026749;28;20176;-47
2023/07/25 11:06:13;;;;;;;3.83;1.20;;;;;;;20.26;56.13;99984.56;5026133;28;20207;-47
2023/07/25 11:08:40;;;;;;;5.70;1.67;;;;;;;20.73;55.88;99992.06;5023826;28;20287;-46
2023/07/25 11:11:07;;;;;;;5.43;1.50;;;;;;;20.68;54.60;99978.88;5027191;28;20164;-52
2023/07/25 11:13:35;;;;;;;4.72;1.17;;;;;;;20.83;54.46;99983.88;5026702;28;20579;-46
2023/07/25 11:16:02;;;;;;;4.40;1.27;;;;;;;20.74;54.19;99982.88;5026877;28;20689;-48